首页
METAR-TAF:

METAR-TAF

机场 :

North Bay, 安大略省, 加拿大

纬度: 46-21N, 经度: 079-26W, 海拔: 358米

当前天气观测

该预报发布于27分钟前的01:00 UTC
风速12节,风向西转西北,有时为18节阵风
温度 20°C
湿度 68%
气压 1011 hPa
能見度: 48.3公里
多云层高于12000英尺

METAR: CYYB 190100Z 30012G18KT 30SM BKN120 20/14 A2986 RMK AC7 SLP113 DENSITY ALT 2100FT

时间: 21:27 (01:27 UTC)

预报

该预报发布于5小时和47分钟前的19:40 UTC
预报有效从18日的 20点(UTC)到 19日的 08点(UTC)
风速5节,风向西南
能見度: 10公里
散云层高于6000英尺
多云层高于12000英尺
从 18日的 2300点(UTC)
风速3节,风向多变
能見度: 10公里
多云层高于6000英尺
短暂存在
从 18日的 23点(UTC)到 19日的 04点(UTC)
能見度: 10公里
多云层高于6000英尺
小阵雨
几率 30%
从 18日的 23点(UTC)到 19日的 02点(UTC)
能見度: 3.2公里
阴天层高于4000英尺, 积雨云.
雷暴, 雨
从 19日的 0400点(UTC)
风速5节,风向东北
能見度: 10公里
散云层高于6000英尺

TAF: CYYB 181940Z 1820/1908 23005KT P6SM SCT060 BKN120 FM182300 VRB03KT P6SM BKN060 TEMPO 1823/1904 P6SM -SHRA BKN060 PROB30 1823/1902 2SM TSRA OVC040CB FM190400 05005KT P6SM SCT060 RMK NXT FCST BY 190200Z

超过4000个机场的气象观测和天气预报(METAR&TAF报告)。

可查询的气象台以黄色和红色小点在地图上表示。

将鼠标移到小点上方,可查看气象台名称。

然后点击查看天气观测和预报。

如需切换地图:点击带黑十字的绿色按钮放大地图;点击带横线的绿色按钮缩小地图;或者点击绿色箭头查看邻近地区的地图。


METAR-TAF: